createdAt,value
2023-12-26T00:07:02.263Z,54.53
2023-12-26T00:17:30.063Z,54.40
2023-12-26T00:27:57.909Z,54.38
2023-12-26T00:38:25.838Z,54.31
2023-12-26T00:48:53.924Z,54.24
2023-12-26T00:59:21.914Z,54.22
2023-12-26T01:09:49.821Z,54.13
2023-12-26T01:20:17.845Z,54.09
2023-12-26T01:30:45.810Z,53.96
2023-12-26T01:41:13.710Z,53.93
2023-12-26T01:51:43.870Z,53.90
2023-12-26T02:02:12.083Z,53.87
2023-12-26T02:12:39.945Z,53.70
2023-12-26T02:23:07.977Z,53.69
2023-12-26T02:33:36.756Z,53.68
2023-12-26T02:44:04.536Z,53.65
2023-12-26T02:54:31.890Z,53.45
2023-12-26T03:04:59.213Z,53.21
2023-12-26T03:15:26.526Z,53.01
2023-12-26T03:25:54.051Z,52.77
2023-12-26T03:36:21.651Z,52.74
2023-12-26T03:46:49.472Z,52.68
2023-12-26T03:57:17.324Z,52.71
2023-12-26T04:07:45.169Z,52.80
2023-12-26T04:18:12.988Z,52.79
2023-12-26T04:28:40.911Z,52.79
2023-12-26T04:39:08.858Z,52.78
2023-12-26T04:49:36.726Z,52.80
2023-12-26T05:00:04.824Z,52.74
2023-12-26T05:10:35.167Z,52.70
2023-12-26T05:21:03.450Z,52.75
2023-12-26T05:31:31.280Z,52.66
2023-12-26T05:41:59.137Z,52.65
2023-12-26T05:52:27.204Z,52.56
2023-12-26T06:02:55.307Z,52.60
2023-12-26T06:13:23.545Z,52.51
2023-12-26T06:23:51.437Z,52.47
2023-12-26T06:34:19.628Z,52.45
2023-12-26T06:44:47.561Z,52.50
2023-12-26T06:55:16.828Z,52.53
2023-12-26T07:05:45.949Z,52.40
2023-12-26T07:16:13.921Z,52.40
2023-12-26T07:26:41.795Z,52.42
2023-12-26T07:37:09.610Z,52.35
2023-12-26T07:47:37.464Z,52.26
2023-12-26T07:58:06.493Z,52.29
2023-12-26T08:08:34.238Z,52.33
2023-12-26T08:19:03.538Z,52.34
2023-12-26T08:29:31.052Z,52.18
2023-12-26T08:39:58.808Z,52.17
2023-12-26T08:50:26.241Z,51.97
2023-12-26T09:00:54.389Z,51.80
2023-12-26T09:11:22.265Z,51.81
2023-12-26T09:21:50.020Z,52.00
2023-12-26T09:32:17.911Z,52.30
2023-12-26T09:42:45.735Z,52.36
2023-12-26T09:53:17.552Z,52.47
2023-12-26T10:03:47.290Z,53.10
2023-12-26T10:14:28.995Z,53.59
2023-12-26T10:24:56.736Z,53.62
2023-12-26T10:35:25.836Z,54.04
2023-12-26T10:45:57.125Z,54.17
2023-12-26T10:56:27.015Z,54.12
2023-12-26T11:06:55.069Z,54.06
2023-12-26T11:17:23.151Z,53.94
2023-12-26T11:27:51.091Z,53.66
2023-12-26T11:38:20.632Z,53.44
2023-12-26T11:48:49.776Z,53.29
2023-12-26T11:59:18.248Z,53.18
2023-12-26T12:09:46.110Z,53.09
2023-12-26T12:20:20.822Z,52.99
2023-12-26T12:31:15.950Z,52.87
2023-12-26T12:41:43.972Z,52.70
2023-12-26T12:52:12.703Z,52.78
2023-12-26T13:02:40.892Z,52.91
2023-12-26T13:13:08.928Z,52.93
2023-12-26T13:23:36.721Z,52.90
2023-12-26T13:34:04.738Z,52.85
2023-12-26T13:44:32.810Z,52.81
2023-12-26T13:55:00.618Z,52.76
2023-12-26T14:05:28.552Z,52.70
2023-12-26T14:15:56.365Z,52.57
2023-12-26T14:26:24.206Z,52.56
2023-12-26T14:36:51.971Z,52.39
2023-12-26T14:47:19.816Z,52.62
2023-12-26T14:57:47.550Z,52.59
2023-12-26T15:08:15.390Z,52.83
2023-12-26T15:18:43.263Z,53.01
2023-12-26T15:29:11.077Z,53.16
2023-12-26T15:39:39.255Z,53.17
2023-12-26T15:50:08.905Z,52.52
2023-12-26T16:00:38.429Z,51.91
2023-12-26T16:11:11.004Z,51.46
2023-12-26T16:21:38.976Z,50.83
2023-12-26T16:32:07.463Z,50.49
2023-12-26T16:42:35.423Z,51.17
2023-12-26T16:53:03.423Z,51.51
2023-12-26T17:03:31.382Z,52.01
2023-12-26T17:13:59.805Z,51.79
2023-12-26T17:24:27.697Z,51.57
2023-12-26T17:34:55.492Z,51.47
2023-12-26T17:45:23.808Z,51.49
2023-12-26T17:55:52.245Z,51.53
2023-12-26T18:06:20.031Z,51.48
2023-12-26T18:16:47.942Z,51.50
2023-12-26T18:27:15.745Z,51.34
2023-12-26T18:37:43.543Z,51.27
2023-12-26T18:48:11.773Z,51.27
2023-12-26T18:58:39.978Z,51.19
2023-12-26T19:09:12.114Z,51.11
2023-12-26T19:19:40.415Z,51.05
2023-12-26T19:30:10.990Z,50.96
2023-12-26T19:40:38.525Z,50.83
2023-12-26T19:51:06.755Z,50.73
2023-12-26T20:01:34.761Z,50.66
2023-12-26T20:12:02.839Z,50.64
2023-12-26T20:22:30.847Z,50.61
2023-12-26T20:32:58.777Z,51.34
2023-12-26T20:43:26.870Z,51.95
2023-12-26T20:53:54.718Z,52.33
2023-12-26T21:04:22.517Z,52.21
2023-12-26T21:14:51.830Z,51.97
2023-12-26T21:25:19.950Z,51.71
2023-12-26T21:35:47.742Z,51.67
2023-12-26T21:46:16.441Z,51.50
2023-12-26T21:56:47.071Z,51.50
2023-12-26T22:07:15.330Z,51.40
2023-12-26T22:17:43.288Z,51.28
2023-12-26T22:28:11.138Z,51.19
2023-12-26T22:38:39.151Z,51.05
2023-12-26T22:49:07.250Z,50.96
2023-12-26T22:59:35.074Z,50.85
2023-12-26T23:10:02.810Z,50.87
2023-12-26T23:20:30.654Z,50.66
2023-12-26T23:30:58.577Z,50.57
2023-12-26T23:41:26.464Z,50.33
2023-12-26T23:51:55.016Z,50.34
